createdAt,value
2019-03-24T00:00:16.993Z,3.30
2019-03-24T00:02:46.374Z,3.26
2019-03-24T00:05:15.766Z,3.25
2019-03-24T00:07:45.166Z,3.22
2019-03-24T00:10:14.758Z,3.20
2019-03-24T00:12:44.143Z,3.16
2019-03-24T00:15:13.954Z,3.13
2019-03-24T00:17:42.583Z,3.11
2019-03-24T00:20:12.439Z,3.10
2019-03-24T00:22:41.831Z,3.09
2019-03-24T00:25:11.351Z,3.07
2019-03-24T00:27:40.745Z,3.05
2019-03-24T00:30:12.158Z,3.06
2019-03-24T00:32:41.541Z,3.05
2019-03-24T00:35:11.235Z,3.03
2019-03-24T00:37:40.637Z,3.05
2019-03-24T00:40:10.435Z,3.04
2019-03-24T00:42:39.067Z,3.02
2019-03-24T00:45:09.948Z,2.99
2019-03-24T00:47:39.370Z,2.98
2019-03-24T00:50:08.992Z,2.97
2019-03-24T00:52:38.373Z,2.99
2019-03-24T00:55:08.469Z,2.99
2019-03-24T00:57:37.970Z,3.01
2019-03-24T01:00:11.628Z,3.04
2019-03-24T01:02:41.004Z,3.08
2019-03-24T01:05:10.545Z,3.10
2019-03-24T01:07:40.002Z,3.11
2019-03-24T01:10:11.003Z,3.13
2019-03-24T01:12:40.394Z,3.14
2019-03-24T01:15:10.030Z,3.13
2019-03-24T01:17:39.585Z,3.15
2019-03-24T01:20:09.304Z,3.15
2019-03-24T01:22:37.994Z,3.15
2019-03-24T01:25:07.743Z,3.13
2019-03-24T01:27:36.382Z,3.08
2019-03-24T01:30:26.665Z,3.03
2019-03-24T01:32:56.049Z,2.99
2019-03-24T01:35:26.379Z,2.93
2019-03-24T01:37:55.795Z,2.86
2019-03-24T01:40:25.182Z,2.77
2019-03-24T01:42:54.638Z,2.70
2019-03-24T01:45:24.070Z,2.66
2019-03-24T01:47:53.459Z,2.60
2019-03-24T01:50:22.838Z,2.54
2019-03-24T01:52:52.238Z,2.48
2019-03-24T01:55:21.641Z,2.45
2019-03-24T01:57:51.003Z,2.39
2019-03-24T02:00:20.486Z,2.35
2019-03-24T02:02:49.876Z,2.32
2019-03-24T02:05:19.258Z,2.32
2019-03-24T02:07:48.660Z,2.32
2019-03-24T02:10:18.179Z,2.33
2019-03-24T02:12:47.576Z,2.33
2019-03-24T02:15:17.120Z,2.33
2019-03-24T02:17:46.505Z,2.31
2019-03-24T02:20:16.023Z,2.29
2019-03-24T02:22:45.429Z,2.26
2019-03-24T02:25:14.811Z,2.23
2019-03-24T02:27:44.211Z,2.20
2019-03-24T02:30:13.889Z,2.18
2019-03-24T02:32:43.279Z,2.18
2019-03-24T02:35:12.755Z,2.21
2019-03-24T02:37:42.148Z,2.24
2019-03-24T02:40:12.043Z,2.26
2019-03-24T02:42:41.455Z,2.27
2019-03-24T02:45:11.785Z,2.23
2019-03-24T02:47:41.270Z,2.20
2019-03-24T02:50:11.942Z,2.18
2019-03-24T02:52:41.317Z,2.18
2019-03-24T02:55:11.036Z,2.20
2019-03-24T02:57:40.664Z,2.23
2019-03-24T03:00:11.255Z,2.26
2019-03-24T03:02:40.651Z,2.25
2019-03-24T03:05:11.066Z,2.27
2019-03-24T03:07:40.467Z,2.29
2019-03-24T03:10:10.880Z,2.28
2019-03-24T03:12:40.346Z,2.28
2019-03-24T03:15:11.420Z,2.27
2019-03-24T03:17:40.808Z,2.25
2019-03-24T03:20:10.906Z,2.24
2019-03-24T03:22:40.541Z,2.21
2019-03-24T03:25:10.349Z,2.21
2019-03-24T03:27:39.821Z,2.22
2019-03-24T03:30:10.130Z,2.26
2019-03-24T03:32:39.632Z,2.23
2019-03-24T03:35:09.723Z,2.17
2019-03-24T03:37:39.137Z,2.09
2019-03-24T03:40:09.515Z,1.98
2019-03-24T03:42:40.099Z,1.89
2019-03-24T03:45:11.406Z,1.82
2019-03-24T03:47:41.149Z,1.78
2019-03-24T03:50:09.954Z,1.75
2019-03-24T03:52:39.598Z,1.72
2019-03-24T03:55:09.793Z,1.75
2019-03-24T03:57:39.204Z,1.78
2019-03-24T04:00:10.425Z,1.79
2019-03-24T04:02:39.833Z,1.80
2019-03-24T04:05:09.354Z,1.79
2019-03-24T04:07:38.794Z,1.77
2019-03-24T04:10:08.643Z,1.77
2019-03-24T04:12:37.280Z,1.78
2019-03-24T04:15:08.616Z,1.80
2019-03-24T04:17:38.037Z,1.85
2019-03-24T04:20:07.834Z,1.90
2019-03-24T04:22:36.533Z,1.95
2019-03-24T04:25:07.788Z,1.98
2019-03-24T04:27:37.158Z,2.04
2019-03-24T04:30:07.783Z,2.09
2019-03-24T04:32:37.176Z,2.15
2019-03-24T04:35:09.087Z,2.19
2019-03-24T04:37:38.481Z,2.25
2019-03-24T04:40:08.948Z,2.30
2019-03-24T04:42:38.330Z,2.34
2019-03-24T04:45:08.225Z,2.36
2019-03-24T04:47:37.615Z,2.37
2019-03-24T04:50:08.813Z,2.35
2019-03-24T04:52:38.317Z,2.34
2019-03-24T04:55:08.377Z,2.36
2019-03-24T04:57:37.838Z,2.36
2019-03-24T05:00:10.533Z,2.36
2019-03-24T05:02:39.923Z,2.36
2019-03-24T05:05:09.718Z,2.34
2019-03-24T05:07:40.171Z,2.33
2019-03-24T05:10:36.671Z,2.35
2019-03-24T05:13:29.330Z,2.36
2019-03-24T05:16:03.884Z,2.34
2019-03-24T05:18:50.055Z,2.34
2019-03-24T05:21:51.712Z,2.30
2019-03-24T05:24:23.000Z,2.19
2019-03-24T05:27:35.440Z,2.10
2019-03-24T05:29:54.765Z,2.03
2019-03-24T05:35:15.594Z,1.87
2019-03-24T05:37:45.160Z,1.78
2019-03-24T05:40:14.641Z,1.71
2019-03-24T05:42:44.193Z,1.68
2019-03-24T05:45:18.463Z,1.65
2019-03-24T05:48:00.393Z,1.63
2019-03-24T05:50:29.781Z,1.63
2019-03-24T05:52:59.164Z,1.66
2019-03-24T05:55:28.655Z,1.71
2019-03-24T05:58:05.219Z,1.74
2019-03-24T06:04:05.763Z,1.79
2019-03-24T06:06:53.095Z,1.81
2019-03-24T06:09:32.316Z,1.84
2019-03-24T06:12:11.703Z,1.87
2019-03-24T06:14:44.679Z,1.84
2019-03-24T06:18:08.444Z,1.81
2019-03-24T06:20:38.005Z,1.81
2019-03-24T06:23:07.372Z,1.83
2019-03-24T06:25:37.011Z,1.82
2019-03-24T06:28:06.589Z,1.80
2019-03-24T06:30:36.037Z,1.76
2019-03-24T06:33:05.514Z,1.70
2019-03-24T06:35:34.958Z,1.63
2019-03-24T06:38:04.632Z,1.58
2019-03-24T06:40:34.054Z,1.56
2019-03-24T06:43:03.444Z,1.54
2019-03-24T06:45:32.827Z,1.52
2019-03-24T06:48:02.209Z,1.53
2019-03-24T06:50:31.611Z,1.56
2019-03-24T06:53:01.008Z,1.60
2019-03-24T06:55:30.398Z,1.66
2019-03-24T06:57:59.886Z,1.72
2019-03-24T07:00:29.307Z,1.76
2019-03-24T07:05:47.630Z,1.97
2019-03-24T07:12:51.355Z,2.16
2019-03-24T07:15:20.215Z,2.27
2019-03-24T07:17:49.624Z,2.35
2019-03-24T07:20:19.030Z,2.43
2019-03-24T07:22:48.441Z,2.51
2019-03-24T07:25:17.833Z,2.59
2019-03-24T07:27:47.256Z,2.68
2019-03-24T07:30:34.502Z,2.78
2019-03-24T07:33:03.992Z,2.88
2019-03-24T07:35:33.390Z,2.98
2019-03-24T07:38:02.812Z,3.09
2019-03-24T07:40:32.206Z,3.21
2019-03-24T07:43:01.836Z,3.32
2019-03-24T07:45:31.220Z,3.47
2019-03-24T07:48:00.622Z,3.66
2019-03-24T07:50:30.017Z,3.85
2019-03-24T07:52:59.406Z,4.02
2019-03-24T07:55:28.805Z,4.20
2019-03-24T07:57:58.269Z,4.35
2019-03-24T08:00:33.565Z,4.48
2019-03-24T08:03:03.015Z,4.60
2019-03-24T08:05:32.409Z,4.75
2019-03-24T08:08:01.815Z,4.90
2019-03-24T08:10:31.209Z,5.02
2019-03-24T08:13:00.602Z,5.16
2019-03-24T08:15:30.001Z,5.25
2019-03-24T08:17:59.393Z,5.40
2019-03-24T08:20:28.790Z,5.55
2019-03-24T08:22:58.212Z,5.68
2019-03-24T08:25:27.586Z,5.80
2019-03-24T08:27:57.002Z,5.91
2019-03-24T08:30:34.496Z,6.01
2019-03-24T08:33:04.503Z,6.12
2019-03-24T08:35:33.897Z,6.20
2019-03-24T08:38:03.387Z,6.29
2019-03-24T08:40:32.779Z,6.39
2019-03-24T08:43:02.236Z,6.49
2019-03-24T08:45:32.080Z,6.60
2019-03-24T08:48:00.723Z,6.71
2019-03-24T08:50:30.085Z,6.79
2019-03-24T08:52:59.474Z,6.84
2019-03-24T08:55:28.876Z,6.94
2019-03-24T08:57:58.284Z,7.01
2019-03-24T09:00:30.850Z,7.06
2019-03-24T09:02:58.799Z,7.11
2019-03-24T09:05:28.190Z,7.19
2019-03-24T09:07:57.604Z,7.27
2019-03-24T09:10:27.004Z,7.33
2019-03-24T09:12:56.633Z,7.42
2019-03-24T09:15:26.036Z,7.45
2019-03-24T09:17:55.429Z,7.49
2019-03-24T09:20:24.818Z,7.52
2019-03-24T09:22:54.240Z,7.56
2019-03-24T09:25:23.695Z,7.60
2019-03-24T09:27:53.107Z,7.66
2019-03-24T09:30:35.026Z,7.69
2019-03-24T09:33:04.763Z,7.72
2019-03-24T09:35:34.217Z,7.75
2019-03-24T09:38:03.626Z,7.79
2019-03-24T09:40:35.242Z,7.86
2019-03-24T09:43:06.345Z,7.95
2019-03-24T09:45:35.824Z,8.04
2019-03-24T09:48:05.559Z,8.14
2019-03-24T09:50:34.383Z,8.28
2019-03-24T09:53:03.829Z,8.41
2019-03-24T09:55:33.257Z,8.50
2019-03-24T09:58:02.690Z,8.59
2019-03-24T10:00:32.088Z,8.66
2019-03-24T10:03:01.493Z,8.73
2019-03-24T10:05:30.907Z,8.77
2019-03-24T10:08:00.398Z,8.77
2019-03-24T10:10:48.600Z,8.81
2019-03-24T10:13:18.345Z,8.86
2019-03-24T10:15:47.170Z,8.93
2019-03-24T10:24:32.115Z,9.11
2019-03-24T10:24:52.393Z,8.99
2019-03-24T10:29:45.872Z,9.25
2019-03-24T10:32:18.269Z,9.31
2019-03-24T10:35:09.403Z,9.38
2019-03-24T10:43:43.634Z,9.42
2019-03-24T10:46:16.195Z,9.46
2019-03-24T10:47:03.472Z,9.40
2019-03-24T10:48:54.970Z,9.58
2019-03-24T10:52:28.393Z,9.73
2019-03-24T10:57:55.875Z,10.16
2019-03-24T11:04:10.843Z,10.49
2019-03-24T11:06:40.224Z,10.49
2019-03-24T11:12:49.886Z,10.47
2019-03-24T11:16:05.091Z,10.41
2019-03-24T11:18:27.371Z,10.39
2019-03-24T11:20:58.413Z,10.36
2019-03-24T11:23:27.801Z,10.30
2019-03-24T11:27:04.420Z,10.31
2019-03-24T11:29:33.836Z,10.47
2019-03-24T11:32:03.340Z,10.61
2019-03-24T11:38:28.775Z,11.04
2019-03-24T11:41:05.683Z,11.29
2019-03-24T11:47:10.705Z,11.56
2019-03-24T11:49:45.886Z,11.70
2019-03-24T11:55:16.697Z,11.79
2019-03-24T11:58:16.718Z,11.87
2019-03-24T12:01:37.779Z,11.98
2019-03-24T12:04:03.419Z,11.98
2019-03-24T12:09:17.234Z,11.78
2019-03-24T12:11:49.840Z,11.77
2019-03-24T12:17:21.479Z,11.91
2019-03-24T12:22:58.502Z,11.97
2019-03-24T12:25:37.328Z,11.99
2019-03-24T12:28:29.321Z,12.05
2019-03-24T12:31:26.262Z,12.13
2019-03-24T12:34:15.457Z,12.18
2019-03-24T12:36:46.553Z,12.22
2019-03-24T12:39:27.836Z,12.31
2019-03-24T12:45:21.228Z,12.27
2019-03-24T12:48:04.060Z,12.28
2019-03-24T12:50:33.355Z,12.33
2019-03-24T12:53:02.858Z,12.34
2019-03-24T12:55:36.015Z,12.27
2019-03-24T12:58:05.606Z,12.23
2019-03-24T13:01:14.474Z,12.24
2019-03-24T13:03:35.909Z,12.29
2019-03-24T13:06:18.236Z,12.30
2019-03-24T13:08:53.757Z,12.31
2019-03-24T13:11:34.849Z,12.33
2019-03-24T13:14:55.908Z,12.36
2019-03-24T13:17:37.279Z,12.31
2019-03-24T13:20:19.545Z,12.33
2019-03-24T13:26:04.415Z,12.27
2019-03-24T13:28:47.787Z,12.29
2019-03-24T13:31:17.216Z,12.33
2019-03-24T13:37:14.928Z,12.40
2019-03-24T13:39:59.263Z,12.45
2019-03-24T13:42:49.038Z,12.50
2019-03-24T13:48:50.744Z,12.56
2019-03-24T13:57:44.240Z,12.54
2019-03-24T14:00:15.947Z,12.54
2019-03-24T14:02:53.047Z,12.62
2019-03-24T14:05:37.783Z,12.70
2019-03-24T14:11:42.858Z,12.75
2019-03-24T14:17:24.678Z,12.73
2019-03-24T14:19:54.074Z,12.76
2019-03-24T14:22:23.565Z,12.68
2019-03-24T14:25:24.289Z,12.53
2019-03-24T14:31:05.500Z,12.21
2019-03-24T14:33:55.968Z,12.19
2019-03-24T14:37:11.797Z,12.21
2019-03-24T14:45:29.570Z,11.96
2019-03-24T14:49:00.948Z,11.92
2019-03-24T14:51:29.931Z,11.93
2019-03-24T14:54:47.830Z,11.87
2019-03-24T14:57:24.055Z,11.87
2019-03-24T15:00:18.572Z,11.87
2019-03-24T15:03:26.812Z,11.83
2019-03-24T15:06:20.197Z,11.80
2019-03-24T15:08:57.371Z,11.80
2019-03-24T15:11:29.812Z,11.86
2019-03-24T15:13:59.304Z,11.88
2019-03-24T15:19:34.083Z,11.93
2019-03-24T15:22:15.558Z,11.97
2019-03-24T15:24:44.934Z,12.01
2019-03-24T15:27:14.329Z,12.01
2019-03-24T15:30:43.107Z,11.99
2019-03-24T15:33:31.537Z,11.98
2019-03-24T15:39:10.735Z,11.89
2019-03-24T15:44:33.036Z,11.79
2019-03-24T15:50:29.694Z,11.71
2019-03-24T15:53:06.072Z,11.62
2019-03-24T15:55:35.657Z,11.56
2019-03-24T16:00:59.391Z,11.46
2019-03-24T16:03:28.770Z,11.42
2019-03-24T16:12:31.495Z,11.26
2019-03-24T16:19:41.062Z,11.12
2019-03-24T16:29:17.972Z,10.89
2019-03-24T16:32:45.623Z,10.83
2019-03-24T16:37:56.098Z,10.68
2019-03-24T16:50:17.151Z,10.38
2019-03-24T16:52:46.655Z,10.32
2019-03-24T16:56:39.082Z,10.28
2019-03-24T16:58:53.353Z,10.20
2019-03-24T17:01:22.996Z,10.13
2019-03-24T17:05:14.987Z,10.05
2019-03-24T17:06:50.345Z,9.97
2019-03-24T17:09:55.988Z,9.88
2019-03-24T17:12:37.773Z,9.80
2019-03-24T17:25:24.519Z,9.50
2019-03-24T17:28:04.694Z,9.46
2019-03-24T17:30:34.290Z,9.41
2019-03-24T17:33:16.151Z,9.38
2019-03-24T17:36:23.873Z,9.36
2019-03-24T17:40:27.351Z,9.31
2019-03-24T17:42:46.432Z,9.26
2019-03-24T17:47:11.011Z,9.21
2019-03-24T17:55:00.806Z,9.00
2019-03-24T17:57:35.323Z,8.95
2019-03-24T18:01:03.129Z,8.90
2019-03-24T18:06:20.543Z,8.78
2019-03-24T18:09:38.878Z,8.71
2019-03-24T18:12:32.752Z,8.63
2019-03-24T18:15:40.957Z,8.56
2019-03-24T18:31:28.282Z,8.23
2019-03-24T18:33:57.742Z,8.18
2019-03-24T18:36:27.130Z,8.13
2019-03-24T18:38:56.534Z,8.10
2019-03-24T18:41:25.923Z,8.05
2019-03-24T18:43:55.317Z,8.01
2019-03-24T18:46:24.723Z,7.97
2019-03-24T18:48:54.117Z,7.92
2019-03-24T18:51:23.516Z,7.87
2019-03-24T18:53:52.931Z,7.82
2019-03-24T18:56:22.324Z,7.78
2019-03-24T18:58:51.726Z,7.76
2019-03-24T19:01:21.129Z,7.72
2019-03-24T19:03:50.531Z,7.68
2019-03-24T19:06:19.912Z,7.66
2019-03-24T19:08:49.347Z,7.63
2019-03-24T19:11:18.736Z,7.57
2019-03-24T19:13:48.121Z,7.53
2019-03-24T19:16:17.536Z,7.48
2019-03-24T19:18:46.928Z,7.45
2019-03-24T19:21:16.340Z,7.39
2019-03-24T19:23:55.994Z,7.35
2019-03-24T19:26:25.380Z,7.30
2019-03-24T19:28:54.847Z,7.27
2019-03-24T19:31:24.290Z,7.23
2019-03-24T19:33:53.850Z,7.19
2019-03-24T19:36:23.239Z,7.17
2019-03-24T19:38:53.113Z,7.11
2019-03-24T19:41:22.787Z,7.06
2019-03-24T19:43:52.171Z,7.00
2019-03-24T19:46:32.105Z,6.96
2019-03-24T19:49:01.489Z,6.97
2019-03-24T19:51:30.879Z,6.97
2019-03-24T19:54:00.334Z,6.97
2019-03-24T19:56:29.723Z,6.96
2019-03-24T19:58:59.135Z,6.94
2019-03-24T20:01:31.786Z,6.92
2019-03-24T20:04:01.206Z,6.91
2019-03-24T20:06:30.603Z,6.89
2019-03-24T20:09:02.691Z,6.88
2019-03-24T20:11:32.083Z,6.86
2019-03-24T20:14:01.525Z,6.83
2019-03-24T20:16:30.955Z,6.80
2019-03-24T20:19:00.413Z,6.78
2019-03-24T20:21:32.606Z,6.74
2019-03-24T20:24:01.990Z,6.72
2019-03-24T20:26:31.361Z,6.71
2019-03-24T20:29:00.822Z,6.69
2019-03-24T20:32:18.029Z,6.66
2019-03-24T20:34:46.958Z,6.61
2019-03-24T20:37:16.529Z,6.58
2019-03-24T20:39:45.950Z,6.54
2019-03-24T20:42:15.380Z,6.51
2019-03-24T20:44:44.781Z,6.47
2019-03-24T20:47:16.013Z,6.44
2019-03-24T20:49:47.478Z,6.41
2019-03-24T20:52:16.647Z,6.39
2019-03-24T20:54:52.231Z,6.37
2019-03-24T20:57:21.647Z,6.35
2019-03-24T20:59:55.705Z,6.31
2019-03-24T21:02:25.121Z,6.29
2019-03-24T21:04:54.535Z,6.26
2019-03-24T21:07:23.935Z,6.22
2019-03-24T21:09:53.329Z,6.19
2019-03-24T21:12:22.722Z,6.14
2019-03-24T21:14:52.128Z,6.10
2019-03-24T21:17:21.524Z,6.08
2019-03-24T21:19:50.931Z,6.03
2019-03-24T21:22:20.349Z,6.00
2019-03-24T21:24:49.744Z,5.98
2019-03-24T21:27:19.128Z,5.96
2019-03-24T21:29:48.528Z,5.94
2019-03-24T21:32:17.916Z,5.91
2019-03-24T21:34:47.309Z,5.89
2019-03-24T21:37:16.712Z,5.88
2019-03-24T21:39:46.158Z,5.88
2019-03-24T21:42:15.568Z,5.87
2019-03-24T21:44:44.994Z,5.87
2019-03-24T21:47:14.375Z,5.87
2019-03-24T21:49:43.773Z,5.84
2019-03-24T21:52:13.176Z,5.83
2019-03-24T21:54:42.574Z,5.81
2019-03-24T21:57:11.961Z,5.80
2019-03-24T21:59:41.379Z,5.79
2019-03-24T22:02:10.837Z,5.77
2019-03-24T22:04:40.243Z,5.76
2019-03-24T22:07:09.679Z,5.73
2019-03-24T22:09:39.077Z,5.72
2019-03-24T22:12:08.711Z,5.71
2019-03-24T22:14:38.120Z,5.67
2019-03-24T22:17:07.518Z,5.65
2019-03-24T22:19:38.735Z,5.64
2019-03-24T22:22:08.194Z,5.63
2019-03-24T22:24:37.588Z,5.60
2019-03-24T22:27:06.973Z,5.59
2019-03-24T22:29:36.383Z,5.58
2019-03-24T22:32:05.773Z,5.57
2019-03-24T22:34:35.170Z,5.55
2019-03-24T22:37:15.479Z,5.54
2019-03-24T22:39:35.774Z,5.52
2019-03-24T22:42:05.160Z,5.52
2019-03-24T22:44:34.570Z,5.53
2019-03-24T22:47:03.965Z,5.53
2019-03-24T22:49:33.358Z,5.54
2019-03-24T22:52:07.271Z,5.59
2019-03-24T22:54:33.885Z,5.61
2019-03-24T22:57:03.277Z,5.65
2019-03-24T22:59:32.682Z,5.71
2019-03-24T23:02:02.071Z,5.75
2019-03-24T23:04:31.464Z,5.80
2019-03-24T23:07:00.877Z,5.84
2019-03-24T23:09:30.267Z,5.88
2019-03-24T23:11:59.665Z,5.94
2019-03-24T23:14:29.074Z,5.99
2019-03-24T23:16:58.472Z,6.04
2019-03-24T23:19:27.870Z,6.09
2019-03-24T23:21:57.284Z,6.16
2019-03-24T23:24:26.674Z,6.20
2019-03-24T23:26:56.062Z,6.24
2019-03-24T23:29:25.545Z,6.29
2019-03-24T23:31:55.018Z,6.33
2019-03-24T23:34:24.418Z,6.37
2019-03-24T23:36:53.833Z,6.43
2019-03-24T23:39:23.224Z,6.48
2019-03-24T23:41:52.616Z,6.53
2019-03-24T23:44:22.026Z,6.57
2019-03-24T23:46:51.421Z,6.62
2019-03-24T23:49:20.812Z,6.68
2019-03-24T23:51:50.222Z,6.73
2019-03-24T23:54:26.857Z,6.78
2019-03-24T23:56:50.964Z,6.82
2019-03-24T23:59:20.377Z,6.85
